sensor_id;sensor_type;location;lat;lon;timestamp;P1;durP1;ratioP1;P2;durP2;ratioP2
32292;SDS011;43233;48.608;8.838;2024-02-26T00:01:53;2.43;;;2.03;;
32292;SDS011;43233;48.608;8.838;2024-02-26T00:04:18;2.10;;;1.90;;
32292;SDS011;43233;48.608;8.838;2024-02-26T00:06:44;2.13;;;2.00;;
32292;SDS011;43233;48.608;8.838;2024-02-26T00:09:10;2.00;;;1.90;;
32292;SDS011;43233;48.608;8.838;2024-02-26T00:11:36;1.90;;;1.80;;
32292;SDS011;43233;48.608;8.838;2024-02-26T00:14:02;3.23;;;2.50;;
32292;SDS011;43233;48.608;8.838;2024-02-26T00:16:28;2.00;;;1.90;;
32292;SDS011;43233;48.608;8.838;2024-02-26T00:18:54;4.30;;;2.83;;
32292;SDS011;43233;48.608;8.838;2024-02-26T00:21:20;3.13;;;2.33;;
32292;SDS011;43233;48.608;8.838;2024-02-26T00:23:45;3.03;;;2.63;;
32292;SDS011;43233;48.608;8.838;2024-02-26T00:26:11;4.17;;;3.53;;
32292;SDS011;43233;48.608;8.838;2024-02-26T00:28:37;3.60;;;3.17;;
32292;SDS011;43233;48.608;8.838;2024-02-26T00:31:03;3.10;;;2.80;;
32292;SDS011;43233;48.608;8.838;2024-02-26T00:33:28;5.90;;;2.63;;
32292;SDS011;43233;48.608;8.838;2024-02-26T00:35:54;3.10;;;2.80;;
32292;SDS011;43233;48.608;8.838;2024-02-26T00:38:20;3.30;;;2.90;;
32292;SDS011;43233;48.608;8.838;2024-02-26T00:40:45;3.03;;;2.83;;
32292;SDS011;43233;48.608;8.838;2024-02-26T00:43:11;3.03;;;2.70;;
32292;SDS011;43233;48.608;8.838;2024-02-26T00:45:36;2.80;;;2.60;;
32292;SDS011;43233;48.608;8.838;2024-02-26T00:48:02;3.27;;;2.90;;
32292;SDS011;43233;48.608;8.838;2024-02-26T00:50:31;2.97;;;2.70;;
32292;SDS011;43233;48.608;8.838;2024-02-26T00:52:57;3.47;;;3.17;;
32292;SDS011;43233;48.608;8.838;2024-02-26T00:55:22;3.30;;;2.57;;
32292;SDS011;43233;48.608;8.838;2024-02-26T00:57:48;4.60;;;2.70;;
32292;SDS011;43233;48.608;8.838;2024-02-26T01:00:14;2.57;;;2.37;;
32292;SDS011;43233;48.608;8.838;2024-02-26T01:02:40;2.20;;;2.00;;
32292;SDS011;43233;48.608;8.838;2024-02-26T01:05:06;2.87;;;2.60;;
32292;SDS011;43233;48.608;8.838;2024-02-26T01:07:34;2.47;;;2.27;;
32292;SDS011;43233;48.608;8.838;2024-02-26T01:10:04;2.60;;;1.80;;
32292;SDS011;43233;48.608;8.838;2024-02-26T01:12:30;1.77;;;1.67;;
32292;SDS011;43233;48.608;8.838;2024-02-26T01:15:00;1.80;;;1.70;;
32292;SDS011;43233;48.608;8.838;2024-02-26T01:17:26;6.50;;;1.93;;
32292;SDS011;43233;48.608;8.838;2024-02-26T01:19:52;2.03;;;1.93;;
32292;SDS011;43233;48.608;8.838;2024-02-26T01:22:18;3.47;;;1.90;;
32292;SDS011;43233;48.608;8.838;2024-02-26T01:24:44;2.40;;;1.90;;
32292;SDS011;43233;48.608;8.838;2024-02-26T01:27:10;2.30;;;1.83;;
32292;SDS011;43233;48.608;8.838;2024-02-26T01:29:35;2.37;;;2.17;;
32292;SDS011;43233;48.608;8.838;2024-02-26T01:32:01;2.30;;;2.10;;
32292;SDS011;43233;48.608;8.838;2024-02-26T01:34:27;4.20;;;1.90;;
32292;SDS011;43233;48.608;8.838;2024-02-26T01:36:53;2.60;;;1.90;;
32292;SDS011;43233;48.608;8.838;2024-02-26T01:39:21;1.93;;;1.83;;
32292;SDS011;43233;48.608;8.838;2024-02-26T01:41:47;5.03;;;2.27;;
32292;SDS011;43233;48.608;8.838;2024-02-26T01:44:13;2.10;;;2.00;;
32292;SDS011;43233;48.608;8.838;2024-02-26T01:46:38;19.23;;;2.67;;
32292;SDS011;43233;48.608;8.838;2024-02-26T01:49:04;2.60;;;2.27;;
32292;SDS011;43233;48.608;8.838;2024-02-26T01:51:30;2.87;;;2.27;;
32292;SDS011;43233;48.608;8.838;2024-02-26T01:53:58;2.30;;;2.20;;
32292;SDS011;43233;48.608;8.838;2024-02-26T01:56:25;2.63;;;2.50;;
32292;SDS011;43233;48.608;8.838;2024-02-26T01:58:57;3.97;;;1.90;;
32292;SDS011;43233;48.608;8.838;2024-02-26T02:01:27;2.00;;;1.90;;
32292;SDS011;43233;48.608;8.838;2024-02-26T02:03:54;2.00;;;1.80;;
32292;SDS011;43233;48.608;8.838;2024-02-26T02:06:23;2.00;;;1.60;;
32292;SDS011;43233;48.608;8.838;2024-02-26T02:08:48;2.20;;;2.10;;
32292;SDS011;43233;48.608;8.838;2024-02-26T02:11:14;3.03;;;2.00;;
32292;SDS011;43233;48.608;8.838;2024-02-26T02:13:40;2.90;;;1.90;;
32292;SDS011;43233;48.608;8.838;2024-02-26T02:16:06;1.80;;;1.70;;
32292;SDS011;43233;48.608;8.838;2024-02-26T02:18:32;1.33;;;1.23;;
32292;SDS011;43233;48.608;8.838;2024-02-26T02:20:59;1.40;;;1.30;;
32292;SDS011;43233;48.608;8.838;2024-02-26T02:23:25;1.10;;;1.10;;
32292;SDS011;43233;48.608;8.838;2024-02-26T02:25:51;1.10;;;1.10;;
32292;SDS011;43233;48.608;8.838;2024-02-26T02:28:17;1.37;;;1.30;;
32292;SDS011;43233;48.608;8.838;2024-02-26T02:30:43;1.27;;;1.27;;
32292;SDS011;43233;48.608;8.838;2024-02-26T02:33:09;1.40;;;1.30;;
32292;SDS011;43233;48.608;8.838;2024-02-26T02:35:36;1.60;;;1.50;;
32292;SDS011;43233;48.608;8.838;2024-02-26T02:38:02;2.13;;;1.93;;
32292;SDS011;43233;48.608;8.838;2024-02-26T02:40:28;2.03;;;1.50;;
32292;SDS011;43233;48.608;8.838;2024-02-26T02:42:54;1.50;;;1.40;;
32292;SDS011;43233;48.608;8.838;2024-02-26T02:45:19;1.60;;;1.50;;
32292;SDS011;43233;48.608;8.838;2024-02-26T02:47:45;1.43;;;1.43;;
32292;SDS011;43233;48.608;8.838;2024-02-26T02:50:11;1.63;;;1.53;;
32292;SDS011;43233;48.608;8.838;2024-02-26T02:52:36;1.57;;;1.47;;
32292;SDS011;43233;48.608;8.838;2024-02-26T02:55:02;1.30;;;1.30;;
32292;SDS011;43233;48.608;8.838;2024-02-26T02:57:28;1.10;;;1.10;;
32292;SDS011;43233;48.608;8.838;2024-02-26T02:59:54;1.00;;;1.00;;
32292;SDS011;43233;48.608;8.838;2024-02-26T03:02:20;1.10;;;1.10;;
32292;SDS011;43233;48.608;8.838;2024-02-26T03:04:45;1.70;;;1.60;;
32292;SDS011;43233;48.608;8.838;2024-02-26T03:07:11;3.60;;;1.90;;
32292;SDS011;43233;48.608;8.838;2024-02-26T03:09:36;2.30;;;1.67;;
32292;SDS011;43233;48.608;8.838;2024-02-26T03:12:02;1.80;;;1.57;;
32292;SDS011;43233;48.608;8.838;2024-02-26T03:14:28;1.80;;;1.70;;
32292;SDS011;43233;48.608;8.838;2024-02-26T03:16:54;1.57;;;1.43;;
32292;SDS011;43233;48.608;8.838;2024-02-26T03:19:20;1.90;;;1.80;;
32292;SDS011;43233;48.608;8.838;2024-02-26T03:21:46;1.80;;;1.70;;
32292;SDS011;43233;48.608;8.838;2024-02-26T03:24:11;2.00;;;1.80;;
32292;SDS011;43233;48.608;8.838;2024-02-26T03:26:37;1.53;;;1.43;;
32292;SDS011;43233;48.608;8.838;2024-02-26T03:29:03;1.60;;;1.50;;
32292;SDS011;43233;48.608;8.838;2024-02-26T03:31:29;1.63;;;1.53;;
32292;SDS011;43233;48.608;8.838;2024-02-26T03:33:55;1.40;;;1.30;;
32292;SDS011;43233;48.608;8.838;2024-02-26T03:36:20;1.50;;;1.40;;
32292;SDS011;43233;48.608;8.838;2024-02-26T03:38:46;1.90;;;1.63;;
32292;SDS011;43233;48.608;8.838;2024-02-26T03:41:13;1.47;;;1.40;;
32292;SDS011;43233;48.608;8.838;2024-02-26T03:43:38;1.77;;;1.50;;
32292;SDS011;43233;48.608;8.838;2024-02-26T03:46:07;1.53;;;1.43;;
32292;SDS011;43233;48.608;8.838;2024-02-26T03:48:33;2.10;;;2.00;;
32292;SDS011;43233;48.608;8.838;2024-02-26T03:50:59;1.90;;;1.80;;
32292;SDS011;43233;48.608;8.838;2024-02-26T03:53:25;2.00;;;1.90;;
32292;SDS011;43233;48.608;8.838;2024-02-26T03:55:51;1.60;;;1.50;;
32292;SDS011;43233;48.608;8.838;2024-02-26T03:58:17;2.00;;;1.90;;
32292;SDS011;43233;48.608;8.838;2024-02-26T04:00:43;3.33;;;1.97;;
32292;SDS011;43233;48.608;8.838;2024-02-26T04:03:09;1.80;;;1.70;;
32292;SDS011;43233;48.608;8.838;2024-02-26T04:05:35;2.60;;;2.30;;
32292;SDS011;43233;48.608;8.838;2024-02-26T04:08:00;6.17;;;2.60;;
32292;SDS011;43233;48.608;8.838;2024-02-26T04:10:26;2.23;;;2.03;;
32292;SDS011;43233;48.608;8.838;2024-02-26T04:12:52;4.93;;;1.77;;
32292;SDS011;43233;48.608;8.838;2024-02-26T04:15:17;1.60;;;1.50;;
32292;SDS011;43233;48.608;8.838;2024-02-26T04:17:43;1.90;;;1.80;;
32292;SDS011;43233;48.608;8.838;2024-02-26T04:20:12;1.80;;;1.70;;
32292;SDS011;43233;48.608;8.838;2024-02-26T04:22:39;2.10;;;2.00;;
32292;SDS011;43233;48.608;8.838;2024-02-26T04:25:05;2.20;;;2.10;;
32292;SDS011;43233;48.608;8.838;2024-02-26T04:27:31;2.23;;;2.10;;
32292;SDS011;43233;48.608;8.838;2024-02-26T04:29:56;1.87;;;1.77;;
32292;SDS011;43233;48.608;8.838;2024-02-26T04:32:22;1.53;;;1.40;;
32292;SDS011;43233;48.608;8.838;2024-02-26T04:34:47;1.50;;;1.47;;
32292;SDS011;43233;48.608;8.838;2024-02-26T04:37:13;1.40;;;1.30;;
32292;SDS011;43233;48.608;8.838;2024-02-26T04:39:39;1.23;;;1.23;;
32292;SDS011;43233;48.608;8.838;2024-02-26T04:42:04;1.10;;;1.10;;
32292;SDS011;43233;48.608;8.838;2024-02-26T04:44:30;1.40;;;1.30;;
32292;SDS011;43233;48.608;8.838;2024-02-26T04:46:55;1.30;;;1.30;;
32292;SDS011;43233;48.608;8.838;2024-02-26T04:49:21;1.30;;;1.30;;
32292;SDS011;43233;48.608;8.838;2024-02-26T04:51:47;1.23;;;1.20;;
32292;SDS011;43233;48.608;8.838;2024-02-26T04:54:13;1.47;;;1.37;;
32292;SDS011;43233;48.608;8.838;2024-02-26T04:56:38;1.40;;;1.33;;
32292;SDS011;43233;48.608;8.838;2024-02-26T04:59:04;1.77;;;1.67;;
32292;SDS011;43233;48.608;8.838;2024-02-26T05:01:30;2.10;;;1.70;;
32292;SDS011;43233;48.608;8.838;2024-02-26T05:03:55;1.80;;;1.70;;
32292;SDS011;43233;48.608;8.838;2024-02-26T05:06:21;1.90;;;1.80;;
32292;SDS011;43233;48.608;8.838;2024-02-26T05:08:46;2.87;;;2.67;;
32292;SDS011;43233;48.608;8.838;2024-02-26T05:11:12;2.20;;;2.10;;
32292;SDS011;43233;48.608;8.838;2024-02-26T05:13:38;1.90;;;1.80;;
32292;SDS011;43233;48.608;8.838;2024-02-26T05:16:03;1.50;;;1.50;;
32292;SDS011;43233;48.608;8.838;2024-02-26T05:18:29;1.60;;;1.50;;
32292;SDS011;43233;48.608;8.838;2024-02-26T05:20:55;1.70;;;1.60;;
32292;SDS011;43233;48.608;8.838;2024-02-26T05:23:20;2.40;;;1.60;;
32292;SDS011;43233;48.608;8.838;2024-02-26T05:25:46;3.63;;;1.60;;
32292;SDS011;43233;48.608;8.838;2024-02-26T05:28:13;1.97;;;1.87;;
32292;SDS011;43233;48.608;8.838;2024-02-26T05:30:40;1.70;;;1.60;;
32292;SDS011;43233;48.608;8.838;2024-02-26T05:33:07;1.30;;;1.30;;
32292;SDS011;43233;48.608;8.838;2024-02-26T05:35:32;1.80;;;1.70;;
32292;SDS011;43233;48.608;8.838;2024-02-26T05:37:58;1.50;;;1.40;;
32292;SDS011;43233;48.608;8.838;2024-02-26T05:40:24;1.90;;;1.80;;
32292;SDS011;43233;48.608;8.838;2024-02-26T05:42:49;1.70;;;1.60;;
32292;SDS011;43233;48.608;8.838;2024-02-26T05:45:15;3.13;;;2.20;;
32292;SDS011;43233;48.608;8.838;2024-02-26T05:47:40;1.43;;;1.33;;
32292;SDS011;43233;48.608;8.838;2024-02-26T05:50:10;2.47;;;2.17;;
32292;SDS011;43233;48.608;8.838;2024-02-26T05:52:36;2.13;;;1.80;;
32292;SDS011;43233;48.608;8.838;2024-02-26T05:55:05;2.30;;;1.63;;
32292;SDS011;43233;48.608;8.838;2024-02-26T05:57:31;1.33;;;1.33;;
32292;SDS011;43233;48.608;8.838;2024-02-26T05:59:58;1.73;;;1.47;;
32292;SDS011;43233;48.608;8.838;2024-02-26T06:02:28;1.80;;;1.67;;
32292;SDS011;43233;48.608;8.838;2024-02-26T06:04:54;2.53;;;2.33;;
32292;SDS011;43233;48.608;8.838;2024-02-26T06:07:20;2.60;;;2.40;;
32292;SDS011;43233;48.608;8.838;2024-02-26T06:09:45;2.10;;;2.00;;
32292;SDS011;43233;48.608;8.838;2024-02-26T06:12:11;2.00;;;1.90;;
32292;SDS011;43233;48.608;8.838;2024-02-26T06:14:36;1.50;;;1.40;;
32292;SDS011;43233;48.608;8.838;2024-02-26T06:17:02;1.80;;;1.70;;
32292;SDS011;43233;48.608;8.838;2024-02-26T06:19:28;2.30;;;2.20;;
32292;SDS011;43233;48.608;8.838;2024-02-26T06:21:53;1.40;;;1.40;;
32292;SDS011;43233;48.608;8.838;2024-02-26T06:24:19;1.93;;;1.83;;
32292;SDS011;43233;48.608;8.838;2024-02-26T06:26:47;2.20;;;2.00;;
32292;SDS011;43233;48.608;8.838;2024-02-26T06:29:13;3.90;;;3.23;;
32292;SDS011;43233;48.608;8.838;2024-02-26T06:31:39;3.03;;;2.73;;
32292;SDS011;43233;48.608;8.838;2024-02-26T06:34:05;4.03;;;3.13;;
32292;SDS011;43233;48.608;8.838;2024-02-26T06:36:31;2.50;;;2.30;;
32292;SDS011;43233;48.608;8.838;2024-02-26T06:38:57;4.83;;;3.33;;
32292;SDS011;43233;48.608;8.838;2024-02-26T06:41:23;3.40;;;3.07;;
32292;SDS011;43233;48.608;8.838;2024-02-26T06:43:55;3.20;;;3.00;;
32292;SDS011;43233;48.608;8.838;2024-02-26T06:46:21;3.83;;;3.40;;
32292;SDS011;43233;48.608;8.838;2024-02-26T06:48:47;5.23;;;3.20;;
32292;SDS011;43233;48.608;8.838;2024-02-26T06:51:14;3.57;;;2.80;;
32292;SDS011;43233;48.608;8.838;2024-02-26T06:53:40;2.80;;;2.60;;
32292;SDS011;43233;48.608;8.838;2024-02-26T06:56:06;2.60;;;2.40;;
32292;SDS011;43233;48.608;8.838;2024-02-26T06:58:31;3.60;;;3.30;;
32292;SDS011;43233;48.608;8.838;2024-02-26T07:00:57;3.33;;;3.03;;
32292;SDS011;43233;48.608;8.838;2024-02-26T07:03:23;4.03;;;3.63;;
32292;SDS011;43233;48.608;8.838;2024-02-26T07:05:50;3.00;;;2.73;;
32292;SDS011;43233;48.608;8.838;2024-02-26T07:08:16;3.20;;;3.00;;
32292;SDS011;43233;48.608;8.838;2024-02-26T07:10:42;2.40;;;2.20;;
32292;SDS011;43233;48.608;8.838;2024-02-26T07:13:08;2.10;;;2.00;;
32292;SDS011;43233;48.608;8.838;2024-02-26T07:15:34;2.50;;;2.00;;
32292;SDS011;43233;48.608;8.838;2024-02-26T07:17:59;1.90;;;1.80;;
32292;SDS011;43233;48.608;8.838;2024-02-26T07:20:28;5.27;;;3.60;;
32292;SDS011;43233;48.608;8.838;2024-02-26T07:22:55;7.50;;;5.70;;
32292;SDS011;43233;48.608;8.838;2024-02-26T07:25:21;3.57;;;3.17;;
32292;SDS011;43233;48.608;8.838;2024-02-26T07:27:46;2.30;;;2.07;;
32292;SDS011;43233;48.608;8.838;2024-02-26T07:30:12;3.27;;;2.13;;
32292;SDS011;43233;48.608;8.838;2024-02-26T07:32:38;1.87;;;1.77;;
32292;SDS011;43233;48.608;8.838;2024-02-26T07:35:04;2.37;;;2.17;;
32292;SDS011;43233;48.608;8.838;2024-02-26T07:37:30;1.73;;;1.63;;
32292;SDS011;43233;48.608;8.838;2024-02-26T07:39:56;2.97;;;1.90;;
32292;SDS011;43233;48.608;8.838;2024-02-26T07:42:21;2.93;;;2.20;;
32292;SDS011;43233;48.608;8.838;2024-02-26T07:44:47;1.83;;;1.73;;
32292;SDS011;43233;48.608;8.838;2024-02-26T07:47:12;2.70;;;2.50;;
32292;SDS011;43233;48.608;8.838;2024-02-26T07:49:39;3.17;;;2.30;;
32292;SDS011;43233;48.608;8.838;2024-02-26T07:52:05;2.73;;;2.47;;
32292;SDS011;43233;48.608;8.838;2024-02-26T07:54:30;3.13;;;2.80;;
32292;SDS011;43233;48.608;8.838;2024-02-26T07:56:56;2.90;;;2.70;;
32292;SDS011;43233;48.608;8.838;2024-02-26T07:59:21;5.73;;;3.50;;
32292;SDS011;43233;48.608;8.838;2024-02-26T08:01:50;10.13;;;4.50;;
32292;SDS011;43233;48.608;8.838;2024-02-26T08:04:16;7.80;;;4.30;;
32292;SDS011;43233;48.608;8.838;2024-02-26T08:06:42;6.20;;;4.60;;
32292;SDS011;43233;48.608;8.838;2024-02-26T08:09:08;4.30;;;3.90;;
32292;SDS011;43233;48.608;8.838;2024-02-26T08:11:33;4.83;;;4.30;;
32292;SDS011;43233;48.608;8.838;2024-02-26T08:13:59;6.27;;;3.60;;
32292;SDS011;43233;48.608;8.838;2024-02-26T08:16:25;5.33;;;3.70;;
32292;SDS011;43233;48.608;8.838;2024-02-26T08:18:50;5.10;;;4.17;;
32292;SDS011;43233;48.608;8.838;2024-02-26T08:21:16;6.77;;;3.57;;
32292;SDS011;43233;48.608;8.838;2024-02-26T08:23:42;3.67;;;3.30;;
32292;SDS011;43233;48.608;8.838;2024-02-26T08:26:09;3.20;;;3.00;;
32292;SDS011;43233;48.608;8.838;2024-02-26T08:28:39;3.97;;;3.67;;
32292;SDS011;43233;48.608;8.838;2024-02-26T08:31:05;5.60;;;2.87;;
32292;SDS011;43233;48.608;8.838;2024-02-26T08:33:30;4.20;;;3.80;;
32292;SDS011;43233;48.608;8.838;2024-02-26T08:35:56;4.93;;;3.70;;
32292;SDS011;43233;48.608;8.838;2024-02-26T08:38:22;8.60;;;3.43;;
32292;SDS011;43233;48.608;8.838;2024-02-26T08:40:48;2.97;;;2.67;;
32292;SDS011;43233;48.608;8.838;2024-02-26T08:43:14;2.97;;;2.70;;
32292;SDS011;43233;48.608;8.838;2024-02-26T08:45:39;3.37;;;2.47;;
32292;SDS011;43233;48.608;8.838;2024-02-26T08:48:05;5.30;;;2.90;;
32292;SDS011;43233;48.608;8.838;2024-02-26T08:50:31;9.17;;;3.63;;
32292;SDS011;43233;48.608;8.838;2024-02-26T08:52:57;4.57;;;3.40;;
32292;SDS011;43233;48.608;8.838;2024-02-26T08:55:22;4.23;;;3.17;;
32292;SDS011;43233;48.608;8.838;2024-02-26T08:57:48;4.40;;;3.03;;
32292;SDS011;43233;48.608;8.838;2024-02-26T09:00:14;4.60;;;3.17;;
32292;SDS011;43233;48.608;8.838;2024-02-26T09:02:45;14.20;;;4.00;;
32292;SDS011;43233;48.608;8.838;2024-02-26T09:05:12;6.60;;;3.03;;
32292;SDS011;43233;48.608;8.838;2024-02-26T09:07:37;3.80;;;3.40;;
32292;SDS011;43233;48.608;8.838;2024-02-26T09:10:03;3.83;;;3.00;;
32292;SDS011;43233;48.608;8.838;2024-02-26T09:12:30;3.97;;;3.37;;
32292;SDS011;43233;48.608;8.838;2024-02-26T09:14:56;2.87;;;2.60;;
32292;SDS011;43233;48.608;8.838;2024-02-26T09:17:22;3.03;;;2.53;;
32292;SDS011;43233;48.608;8.838;2024-02-26T09:19:48;5.40;;;2.63;;
32292;SDS011;43233;48.608;8.838;2024-02-26T09:22:14;2.30;;;2.20;;
32292;SDS011;43233;48.608;8.838;2024-02-26T09:24:39;2.40;;;2.30;;
32292;SDS011;43233;48.608;8.838;2024-02-26T09:27:05;2.50;;;2.30;;
32292;SDS011;43233;48.608;8.838;2024-02-26T09:29:31;2.50;;;2.30;;
32292;SDS011;43233;48.608;8.838;2024-02-26T09:31:57;2.70;;;1.70;;
32292;SDS011;43233;48.608;8.838;2024-02-26T09:34:22;2.13;;;1.93;;
32292;SDS011;43233;48.608;8.838;2024-02-26T09:36:48;1.80;;;1.70;;
32292;SDS011;43233;48.608;8.838;2024-02-26T09:39:13;1.90;;;1.80;;
32292;SDS011;43233;48.608;8.838;2024-02-26T09:41:45;2.93;;;2.10;;
32292;SDS011;43233;48.608;8.838;2024-02-26T09:44:10;3.13;;;2.20;;
32292;SDS011;43233;48.608;8.838;2024-02-26T09:46:38;1.70;;;1.60;;
32292;SDS011;43233;48.608;8.838;2024-02-26T09:49:03;3.07;;;2.77;;
32292;SDS011;43233;48.608;8.838;2024-02-26T09:51:30;3.57;;;3.27;;
32292;SDS011;43233;48.608;8.838;2024-02-26T09:53:57;2.80;;;2.60;;
32292;SDS011;43233;48.608;8.838;2024-02-26T09:56:26;1.77;;;1.67;;
32292;SDS011;43233;48.608;8.838;2024-02-26T09:58:52;1.43;;;1.37;;
32292;SDS011;43233;48.608;8.838;2024-02-26T10:01:20;1.70;;;1.60;;
32292;SDS011;43233;48.608;8.838;2024-02-26T10:03:48;2.07;;;1.97;;
32292;SDS011;43233;48.608;8.838;2024-02-26T10:06:17;1.80;;;1.70;;
32292;SDS011;43233;48.608;8.838;2024-02-26T10:08:43;1.97;;;1.87;;
32292;SDS011;43233;48.608;8.838;2024-02-26T10:11:09;1.87;;;1.77;;
32292;SDS011;43233;48.608;8.838;2024-02-26T10:13:35;2.20;;;2.00;;
32292;SDS011;43233;48.608;8.838;2024-02-26T10:16:01;2.00;;;1.90;;
32292;SDS011;43233;48.608;8.838;2024-02-26T10:18:44;2.20;;;2.00;;
32292;SDS011;43233;48.608;8.838;2024-02-26T10:21:10;2.30;;;1.87;;
32292;SDS011;43233;48.608;8.838;2024-02-26T10:23:36;1.77;;;1.67;;
32292;SDS011;43233;48.608;8.838;2024-02-26T10:26:02;2.00;;;1.90;;
32292;SDS011;43233;48.608;8.838;2024-02-26T10:28:29;3.03;;;2.40;;
32292;SDS011;43233;48.608;8.838;2024-02-26T10:30:55;2.20;;;1.93;;
32292;SDS011;43233;48.608;8.838;2024-02-26T10:33:21;1.77;;;1.67;;
32292;SDS011;43233;48.608;8.838;2024-02-26T10:35:47;3.40;;;2.20;;
32292;SDS011;43233;48.608;8.838;2024-02-26T10:38:14;1.90;;;1.70;;
32292;SDS011;43233;48.608;8.838;2024-02-26T10:40:45;2.30;;;1.67;;
32292;SDS011;43233;48.608;8.838;2024-02-26T10:43:10;3.20;;;1.83;;
32292;SDS011;43233;48.608;8.838;2024-02-26T10:45:38;2.97;;;1.70;;
32292;SDS011;43233;48.608;8.838;2024-02-26T10:48:09;2.83;;;1.97;;
32292;SDS011;43233;48.608;8.838;2024-02-26T10:50:36;1.80;;;1.70;;
32292;SDS011;43233;48.608;8.838;2024-02-26T10:53:02;1.60;;;1.50;;
32292;SDS011;43233;48.608;8.838;2024-02-26T10:55:32;1.87;;;1.77;;
32292;SDS011;43233;48.608;8.838;2024-02-26T10:58:00;1.50;;;1.40;;
32292;SDS011;43233;48.608;8.838;2024-02-26T11:00:27;1.60;;;1.50;;
32292;SDS011;43233;48.608;8.838;2024-02-26T11:02:54;1.80;;;1.70;;
32292;SDS011;43233;48.608;8.838;2024-02-26T11:05:23;2.27;;;1.83;;
32292;SDS011;43233;48.608;8.838;2024-02-26T11:07:50;2.30;;;2.10;;
32292;SDS011;43233;48.608;8.838;2024-02-26T11:10:16;2.37;;;2.17;;
32292;SDS011;43233;48.608;8.838;2024-02-26T11:12:42;4.60;;;2.30;;
32292;SDS011;43233;48.608;8.838;2024-02-26T11:15:08;2.40;;;1.90;;
32292;SDS011;43233;48.608;8.838;2024-02-26T11:17:34;3.70;;;1.90;;
32292;SDS011;43233;48.608;8.838;2024-02-26T11:20:01;2.40;;;2.13;;
32292;SDS011;43233;48.608;8.838;2024-02-26T11:22:30;1.50;;;1.40;;
32292;SDS011;43233;48.608;8.838;2024-02-26T11:24:57;2.77;;;1.80;;
32292;SDS011;43233;48.608;8.838;2024-02-26T11:27:26;1.33;;;1.23;;
32292;SDS011;43233;48.608;8.838;2024-02-26T11:30:14;1.73;;;1.63;;
32292;SDS011;43233;48.608;8.838;2024-02-26T11:32:45;3.03;;;1.60;;
32292;SDS011;43233;48.608;8.838;2024-02-26T11:35:12;1.70;;;1.60;;
32292;SDS011;43233;48.608;8.838;2024-02-26T11:37:40;1.53;;;1.40;;
32292;SDS011;43233;48.608;8.838;2024-02-26T11:40:15;2.47;;;1.50;;
32292;SDS011;43233;48.608;8.838;2024-02-26T11:42:43;2.07;;;1.80;;
32292;SDS011;43233;48.608;8.838;2024-02-26T11:48:02;1.50;;;1.40;;
32292;SDS011;43233;48.608;8.838;2024-02-26T11:50:41;1.27;;;1.17;;
32292;SDS011;43233;48.608;8.838;2024-02-26T11:58:39;1.60;;;1.50;;
32292;SDS011;43233;48.608;8.838;2024-02-26T12:01:05;1.70;;;1.60;;
32292;SDS011;43233;48.608;8.838;2024-02-26T12:03:51;2.10;;;1.83;;
32292;SDS011;43233;48.608;8.838;2024-02-26T12:06:19;1.77;;;1.67;;
32292;SDS011;43233;48.608;8.838;2024-02-26T12:08:46;2.13;;;1.97;;
32292;SDS011;43233;48.608;8.838;2024-02-26T12:11:15;1.90;;;1.80;;
32292;SDS011;43233;48.608;8.838;2024-02-26T12:13:41;2.20;;;1.73;;
32292;SDS011;43233;48.608;8.838;2024-02-26T12:16:07;1.80;;;1.70;;
32292;SDS011;43233;48.608;8.838;2024-02-26T12:18:34;1.40;;;1.30;;
32292;SDS011;43233;48.608;8.838;2024-02-26T12:21:00;1.90;;;1.80;;
32292;SDS011;43233;48.608;8.838;2024-02-26T12:23:29;1.83;;;1.73;;
32292;SDS011;43233;48.608;8.838;2024-02-26T12:25:58;1.90;;;1.80;;
32292;SDS011;43233;48.608;8.838;2024-02-26T12:28:28;3.70;;;1.80;;
32292;SDS011;43233;48.608;8.838;2024-02-26T12:30:54;1.87;;;1.80;;
32292;SDS011;43233;48.608;8.838;2024-02-26T12:33:20;2.40;;;1.63;;
32292;SDS011;43233;48.608;8.838;2024-02-26T12:35:45;1.70;;;1.60;;
32292;SDS011;43233;48.608;8.838;2024-02-26T12:38:14;2.60;;;1.80;;
32292;SDS011;43233;48.608;8.838;2024-02-26T12:40:40;2.40;;;1.70;;
32292;SDS011;43233;48.608;8.838;2024-02-26T12:43:05;3.03;;;1.80;;
32292;SDS011;43233;48.608;8.838;2024-02-26T12:45:38;2.20;;;1.87;;
32292;SDS011;43233;48.608;8.838;2024-02-26T12:48:05;1.47;;;1.37;;
32292;SDS011;43233;48.608;8.838;2024-02-26T12:50:31;1.57;;;1.47;;
32292;SDS011;43233;48.608;8.838;2024-02-26T12:52:57;1.90;;;1.80;;
32292;SDS011;43233;48.608;8.838;2024-02-26T12:55:23;3.07;;;1.90;;
32292;SDS011;43233;48.608;8.838;2024-02-26T12:57:50;1.73;;;1.63;;
32292;SDS011;43233;48.608;8.838;2024-02-26T13:00:18;1.90;;;1.80;;
32292;SDS011;43233;48.608;8.838;2024-02-26T13:02:48;5.03;;;2.17;;
32292;SDS011;43233;48.608;8.838;2024-02-26T13:05:15;2.50;;;1.50;;
32292;SDS011;43233;48.608;8.838;2024-02-26T13:07:46;2.10;;;1.90;;
32292;SDS011;43233;48.608;8.838;2024-02-26T13:10:12;1.27;;;1.20;;
32292;SDS011;43233;48.608;8.838;2024-02-26T13:12:44;5.47;;;1.40;;
32292;SDS011;43233;48.608;8.838;2024-02-26T13:15:16;1.57;;;1.47;;
32292;SDS011;43233;48.608;8.838;2024-02-26T13:17:46;1.50;;;1.40;;
32292;SDS011;43233;48.608;8.838;2024-02-26T13:20:13;1.43;;;1.33;;
32292;SDS011;43233;48.608;8.838;2024-02-26T13:22:49;1.50;;;1.33;;
32292;SDS011;43233;48.608;8.838;2024-02-26T13:25:19;1.27;;;1.17;;
32292;SDS011;43233;48.608;8.838;2024-02-26T13:27:45;0.90;;;0.90;;
32292;SDS011;43233;48.608;8.838;2024-02-26T13:30:11;1.00;;;1.00;;
32292;SDS011;43233;48.608;8.838;2024-02-26T13:32:38;0.80;;;0.80;;
32292;SDS011;43233;48.608;8.838;2024-02-26T13:37:38;1.93;;;1.30;;
32292;SDS011;43233;48.608;8.838;2024-02-26T13:40:07;1.07;;;1.00;;
32292;SDS011;43233;48.608;8.838;2024-02-26T13:42:36;1.10;;;1.03;;
32292;SDS011;43233;48.608;8.838;2024-02-26T13:45:03;1.00;;;0.93;;
32292;SDS011;43233;48.608;8.838;2024-02-26T13:47:31;0.90;;;0.90;;
32292;SDS011;43233;48.608;8.838;2024-02-26T13:49:58;1.10;;;1.10;;
32292;SDS011;43233;48.608;8.838;2024-02-26T13:52:24;0.80;;;0.80;;
32292;SDS011;43233;48.608;8.838;2024-02-26T13:54:50;1.00;;;1.00;;
32292;SDS011;43233;48.608;8.838;2024-02-26T13:57:16;1.07;;;0.97;;
32292;SDS011;43233;48.608;8.838;2024-02-26T13:59:42;1.20;;;0.90;;
32292;SDS011;43233;48.608;8.838;2024-02-26T14:02:08;1.63;;;1.50;;
32292;SDS011;43233;48.608;8.838;2024-02-26T14:04:34;1.20;;;1.10;;
32292;SDS011;43233;48.608;8.838;2024-02-26T14:07:01;1.37;;;1.10;;
32292;SDS011;43233;48.608;8.838;2024-02-26T14:09:26;1.27;;;1.13;;
32292;SDS011;43233;48.608;8.838;2024-02-26T14:11:52;0.80;;;0.80;;
32292;SDS011;43233;48.608;8.838;2024-02-26T14:14:18;0.70;;;0.70;;
32292;SDS011;43233;48.608;8.838;2024-02-26T14:16:43;0.70;;;0.70;;
32292;SDS011;43233;48.608;8.838;2024-02-26T14:19:09;0.80;;;0.80;;
32292;SDS011;43233;48.608;8.838;2024-02-26T14:21:34;0.70;;;0.70;;
32292;SDS011;43233;48.608;8.838;2024-02-26T14:24:00;0.80;;;0.75;;
32292;SDS011;43233;48.608;8.838;2024-02-26T14:26:26;0.90;;;0.90;;
32292;SDS011;43233;48.608;8.838;2024-02-26T14:28:51;1.43;;;1.00;;
32292;SDS011;43233;48.608;8.838;2024-02-26T14:31:17;1.20;;;0.70;;
32292;SDS011;43233;48.608;8.838;2024-02-26T14:33:43;0.70;;;0.70;;
32292;SDS011;43233;48.608;8.838;2024-02-26T14:36:09;3.13;;;1.30;;
32292;SDS011;43233;48.608;8.838;2024-02-26T14:38:36;0.93;;;0.93;;
32292;SDS011;43233;48.608;8.838;2024-02-26T14:41:03;1.10;;;1.03;;
32292;SDS011;43233;48.608;8.838;2024-02-26T14:43:29;3.37;;;1.03;;
32292;SDS011;43233;48.608;8.838;2024-02-26T14:45:55;1.63;;;1.30;;
32292;SDS011;43233;48.608;8.838;2024-02-26T14:48:22;1.13;;;1.13;;
32292;SDS011;43233;48.608;8.838;2024-02-26T14:50:49;1.47;;;1.20;;
32292;SDS011;43233;48.608;8.838;2024-02-26T14:53:15;1.20;;;1.10;;
32292;SDS011;43233;48.608;8.838;2024-02-26T14:55:41;1.60;;;1.33;;